Time;durP1;ratioP1;P1;durP2;ratioP2;P2;SDS_P1;SDS_P2;PMS_P1;PMS_P2;Temp;Humidity;BMP_temperature;BMP_pressure;BME280_temperature;BME280_humidity;BME280_pressure;Samples;Min_cycle;Max_cycle;Signal;HPM_P1;HPM_P2
2022/01/14 00:00:16;;;;;;;30.85;23.00;;;5.30;63.40;;;-142.21;100.00;112049.66;4994922;28;20207;-78
2022/01/14 00:02:43;;;;;;;30.95;23.65;;;5.20;63.40;;;-142.21;100.00;112049.66;4975239;28;20303;-78
2022/01/14 00:05:11;;;;;;;33.30;25.05;;;5.20;63.60;;;-142.21;100.00;112049.66;4975490;28;20204;-78
2022/01/14 00:07:38;;;;;;;35.92;25.25;;;5.20;63.90;;;-142.21;100.00;112049.66;4974571;28;20208;-78
2022/01/14 00:10:08;;;;;;;35.22;26.67;;;5.20;64.40;;;-142.21;100.00;112049.66;4978904;28;20231;-78
2022/01/14 00:12:40;;;;;;;40.38;29.27;;;5.20;65.00;;;-142.21;100.00;112049.66;4977762;28;20224;-78
2022/01/14 00:15:24;;;;;;;37.80;28.52;;;5.20;64.80;;;-142.21;100.00;112049.66;4994605;28;20206;-78
2022/01/14 00:17:53;;;;;;;47.22;30.60;;;5.20;65.10;;;-142.21;100.00;112049.66;4993994;28;20200;-78
2022/01/14 00:20:21;;;;;;;38.38;28.23;;;5.20;65.20;;;-142.21;100.00;112049.66;4994341;28;20297;-78
2022/01/14 00:22:49;;;;;;;44.15;28.92;;;5.30;65.30;;;-142.21;100.00;112049.66;4993221;28;20204;-78
2022/01/14 00:33:35;;;;;;;40.50;28.95;;;5.20;65.00;;;-142.21;100.00;112049.66;4994109;28;20234;-78
2022/01/14 00:36:02;;;;;;;43.03;29.00;;;5.20;65.20;;;-142.21;100.00;112049.66;4984077;28;20288;-78
2022/01/14 00:38:29;;;;;;;46.33;28.88;;;5.20;65.40;;;-142.21;100.00;112049.66;4992193;28;20208;-77
2022/01/14 00:40:56;;;;;;;40.47;28.83;;;5.20;65.40;;;-142.21;100.00;112049.66;4993045;28;20244;-77
2022/01/14 00:43:24;;;;;;;37.45;26.80;;;5.10;65.50;;;-142.21;100.00;112049.66;4994031;28;20204;-79
2022/01/14 00:45:52;;;;;;;38.97;28.45;;;5.20;65.50;;;-142.21;100.00;112049.66;4993687;28;20216;-79
2022/01/14 00:48:21;;;;;;;40.33;27.77;;;5.20;65.40;;;-142.21;100.00;112049.66;4993489;28;21112;-79
2022/01/14 00:50:50;;;;;;;38.10;27.38;;;5.20;65.70;;;-142.21;100.00;112049.66;4993178;28;20602;-78
2022/01/14 00:53:17;;;;;;;44.72;29.80;;;5.20;65.40;;;-142.21;100.00;112049.66;4993390;28;20227;-79
2022/01/14 00:55:54;;;;;;;42.85;29.33;;;5.20;65.10;;;-142.21;100.00;112049.66;4983569;28;20628;-79
2022/01/14 01:01:06;;;;;;;37.95;25.85;;;5.10;65.40;;;-142.21;100.00;112049.66;4974076;28;20188;-79
2022/01/14 01:03:34;;;;;;;40.42;28.95;;;5.10;65.70;;;-142.21;100.00;112049.66;4974604;28;20216;-77
2022/01/14 01:06:04;;;;;;;39.85;27.13;;;5.10;65.50;;;-142.21;100.00;112049.66;4980578;28;20724;-77
2022/01/14 01:08:32;;;;;;;43.03;29.60;;;5.10;65.70;;;-142.21;100.00;112049.66;4993411;28;20704;-77
2022/01/14 01:11:03;;;;;;;37.72;27.05;;;5.10;65.40;;;-142.21;100.00;112049.66;4993492;28;20676;-76
2022/01/14 01:13:35;;;;;;;32.55;23.95;;;5.10;65.50;;;-142.21;100.00;112049.66;4993041;28;20222;-77
2022/01/14 01:16:02;;;;;;;39.25;28.15;;;5.10;65.80;;;-142.21;100.00;112049.66;4993649;28;20188;-77
2022/01/14 01:18:30;;;;;;;34.85;26.27;;;5.10;65.20;;;-142.21;100.00;112049.66;4992859;28;20243;-79
2022/01/14 01:20:57;;;;;;;33.35;25.35;;;5.20;65.30;;;-142.21;100.00;112049.66;4992836;28;20323;-78
2022/01/14 01:23:26;;;;;;;36.72;25.73;;;5.10;64.80;;;-142.21;100.00;112049.66;4993558;28;20212;-78
2022/01/14 01:25:59;;;;;;;32.35;23.42;;;5.10;64.90;;;-142.21;100.00;112049.66;4993582;28;20294;-79
2022/01/14 01:28:27;;;;;;;33.55;23.75;;;5.10;64.80;;;-142.21;100.00;112049.66;4960889;28;20195;-78
2022/01/14 01:31:34;;;;;;;39.22;27.02;;;5.00;65.20;;;-142.21;100.00;112049.66;4993483;28;20218;-78
2022/01/14 01:33:52;;;;;;;32.95;24.35;;;5.00;65.00;;;-142.21;100.00;112049.66;4992989;28;20231;-78
2022/01/14 01:36:19;;;;;;;37.42;26.02;;;5.00;65.20;;;-142.21;100.00;112049.66;4994210;28;20231;-78
2022/01/14 01:38:47;;;;;;;37.17;25.95;;;5.00;65.40;;;-142.21;100.00;112049.66;4994358;28;20235;-77
2022/01/14 01:41:17;;;;;;;35.90;26.10;;;4.90;65.70;;;-142.21;100.00;112049.66;4999808;28;20260;-78
2022/01/14 01:43:50;;;;;;;39.47;27.70;;;4.90;66.20;;;-142.21;100.00;112049.66;5010063;28;20215;-78
2022/01/14 01:46:19;;;;;;;39.80;25.60;;;4.90;66.20;;;-142.21;100.00;112049.66;4995012;28;20234;-78
2022/01/14 01:48:46;;;;;;;43.28;26.35;;;4.90;65.80;;;-142.21;100.00;112049.66;4991570;28;20219;-78
2022/01/14 01:51:14;;;;;;;41.67;26.52;;;4.90;66.10;;;-142.21;100.00;112049.66;4993120;28;20295;-78
2022/01/14 01:53:41;;;;;;;51.28;27.25;;;5.00;66.20;;;-142.21;100.00;112049.66;4992736;28;20227;-78
2022/01/14 01:56:10;;;;;;;35.03;24.65;;;4.80;66.30;;;-142.21;100.00;112049.66;4976622;28;20287;-78
2022/01/14 01:58:37;;;;;;;52.83;30.55;;;4.80;66.10;;;-142.21;100.00;112049.66;4973467;28;20300;-78
2022/01/14 02:01:05;;;;;;;99.40;30.23;;;4.90;65.80;;;-142.21;100.00;112049.66;4973067;28;20416;-78
2022/01/14 02:03:34;;;;;;;92.25;31.35;;;4.80;66.20;;;-142.21;100.00;112049.66;4973199;28;20550;-78
2022/01/14 02:06:02;;;;;;;91.35;30.48;;;4.80;66.30;;;-142.21;100.00;112049.66;4979450;28;20219;-79
2022/01/14 02:08:31;;;;;;;57.40;29.60;;;4.60;66.50;;;-142.21;100.00;112049.66;4992936;28;20637;-79
2022/01/14 02:10:59;;;;;;;354.40;49.03;;;4.70;66.80;;;-142.21;100.00;112049.66;4992071;28;20208;-78
2022/01/14 02:13:30;;;;;;;79.68;29.35;;;4.60;66.70;;;-142.21;100.00;112049.66;4993019;28;20231;-78
2022/01/14 02:18:49;;;;;;;35.78;24.83;;;4.60;67.50;;;-142.21;100.00;112049.66;4986695;28;20753;-76
2022/01/14 02:24:20;;;;;;;56.92;30.95;;;4.70;66.50;;;-142.21;100.00;112049.66;4973488;28;20559;-78
2022/01/14 02:26:52;;;;;;;108.15;34.80;;;4.70;66.70;;;-142.21;100.00;112049.66;4973228;28;20228;-78
2022/01/14 02:29:21;;;;;;;70.13;30.23;;;4.70;66.60;;;-142.21;100.00;112049.66;4974800;28;20276;-78
2022/01/14 02:31:48;;;;;;;50.83;27.27;;;4.70;66.60;;;-142.21;100.00;112049.66;4992181;28;20768;-78
2022/01/14 02:34:17;;;;;;;55.40;27.27;;;4.70;67.60;;;-142.21;100.00;112049.66;4991662;28;20319;-78
2022/01/14 02:36:48;;;;;;;38.80;24.20;;;4.70;66.70;;;-142.21;100.00;112049.66;4992743;28;20218;-77
2022/01/14 02:39:18;;;;;;;67.05;29.23;;;4.70;66.70;;;-142.21;100.00;112049.66;4992120;28;20633;-78
2022/01/14 02:41:48;;;;;;;44.08;24.83;;;4.70;66.60;;;-142.21;100.00;112049.66;4992450;28;20580;-78
2022/01/14 02:44:25;;;;;;;218.77;46.38;;;4.70;67.00;;;-142.21;100.00;112049.66;4992415;28;20196;-79
2022/01/14 02:46:56;;;;;;;78.85;30.20;;;4.60;67.20;;;-142.21;100.00;112049.66;4991803;28;20203;-79
2022/01/14 02:49:27;;;;;;;58.10;26.90;;;4.50;67.30;;;-142.21;100.00;112049.66;4992216;28;20219;-78
2022/01/14 02:51:57;;;;;;;60.60;27.02;;;4.50;67.80;;;-142.21;100.00;112049.66;4992609;28;20255;-78
2022/01/14 02:54:32;;;;;;;58.85;27.83;;;4.40;67.80;;;-142.21;100.00;112049.66;4992532;28;20267;-75
2022/01/14 02:57:03;;;;;;;59.85;29.65;;;4.40;67.80;;;-142.21;100.00;112049.66;4997729;28;20255;-76
2022/01/14 02:59:33;;;;;;;69.72;29.60;;;4.40;67.90;;;-142.21;100.00;112049.66;4999795;28;20223;-78
2022/01/14 03:02:04;;;;;;;69.22;28.48;;;4.40;68.00;;;-142.21;100.00;112049.66;5003400;28;20201;-78
2022/01/14 03:04:36;;;;;;;73.55;29.40;;;4.40;68.30;;;-142.21;100.00;112049.66;5004750;28;20196;-76
2022/01/14 03:07:05;;;;;;;94.63;31.17;;;4.40;68.70;;;-142.21;100.00;112049.66;5005404;28;20215;-77
2022/01/14 03:09:33;;;;;;;70.90;30.02;;;4.30;69.10;;;-142.21;100.00;112049.66;5007155;28;20224;-78
2022/01/14 03:12:03;;;;;;;61.05;27.73;;;4.30;69.10;;;-142.21;100.00;112049.66;5002420;28;20211;-76
2022/01/14 03:14:30;;;;;;;56.25;27.55;;;4.30;69.10;;;-142.21;100.00;112049.66;5005939;28;20243;-76
2022/01/14 03:17:00;;;;;;;85.15;29.65;;;4.40;68.70;;;-142.21;100.00;112049.66;5004763;28;20231;-78
2022/01/14 03:19:29;;;;;;;190.93;35.85;;;4.40;69.00;;;-142.21;100.00;112049.66;4998702;28;20204;-78
2022/01/14 03:22:06;;;;;;;186.55;34.17;;;4.30;69.20;;;-142.21;100.00;112049.66;4995044;28;20200;-77
2022/01/14 03:27:20;;;;;;;162.50;35.00;;;4.20;69.70;;;-142.21;100.00;112049.66;4995393;28;20187;-78
2022/01/14 03:29:48;;;;;;;123.85;31.27;;;4.20;69.50;;;-142.21;100.00;112049.66;4995333;28;20298;-78
2022/01/14 03:32:16;;;;;;;69.80;27.15;;;4.10;70.10;;;-142.21;100.00;112049.66;4994810;28;20239;-79
2022/01/14 03:34:43;;;;;;;108.18;30.17;;;4.10;70.00;;;-142.21;100.00;112049.66;4995164;28;20224;-77
2022/01/14 03:37:10;;;;;;;133.00;31.10;;;4.00;70.50;;;-142.21;100.00;112049.66;4994862;28;20235;-78
2022/01/14 03:39:39;;;;;;;112.20;32.00;;;4.00;70.30;;;-142.21;100.00;112049.66;4995287;28;20243;-77
2022/01/14 03:42:07;;;;;;;97.90;28.70;;;3.90;70.50;;;-142.21;100.00;112049.66;4994708;28;20270;-78
2022/01/14 03:44:34;;;;;;;62.53;27.02;;;4.00;70.90;;;-142.21;100.00;112049.66;4994972;28;20232;-77
2022/01/14 03:47:01;;;;;;;163.07;33.25;;;4.00;70.50;;;-142.21;100.00;112049.66;4995086;28;20302;-77
2022/01/14 03:49:29;;;;;;;97.25;30.30;;;3.90;70.40;;;-142.21;100.00;112049.66;4994610;28;20294;-78
2022/01/14 03:51:56;;;;;;;62.00;29.50;;;4.00;70.70;;;-142.21;100.00;112049.66;4994833;28;20211;-78
2022/01/14 03:54:24;;;;;;;73.55;29.85;;;4.00;70.50;;;-142.21;100.00;112049.66;4994637;28;20310;-78
2022/01/14 03:56:52;;;;;;;69.78;31.98;;;4.20;70.40;;;-142.21;100.00;112049.66;4989465;28;20255;-78
2022/01/14 03:59:20;;;;;;;48.70;31.33;;;4.20;70.10;;;-142.21;100.00;112049.66;4989871;28;20307;-78
2022/01/14 04:01:47;;;;;;;53.83;26.10;;;4.30;70.90;;;-142.21;100.00;112049.66;4994926;28;20247;-77
2022/01/14 04:04:14;;;;;;;79.65;29.55;;;4.40;69.80;;;-142.21;100.00;112049.66;4994896;28;20295;-78
2022/01/14 04:06:41;;;;;;;55.63;27.00;;;4.50;69.60;;;-142.21;100.00;112049.66;4994142;28;20248;-77
2022/01/14 04:09:09;;;;;;;58.05;29.45;;;4.40;69.90;;;-142.21;100.00;112049.66;4994553;28;20227;-76
2022/01/14 04:11:36;;;;;;;55.17;27.17;;;4.40;69.60;;;-142.21;100.00;112049.66;4974348;28;20300;-78
2022/01/14 04:15:36;;;;;;;46.45;29.48;;;4.50;69.50;;;-142.21;100.00;112049.66;4974394;28;20271;-78
2022/01/14 04:16:58;;;;;;;54.60;29.98;;;4.50;69.50;;;-142.21;100.00;112049.66;4974460;28;20209;-78
2022/01/14 04:19:28;;;;;;;42.17;26.75;;;4.60;69.50;;;-142.21;100.00;112049.66;4975010;28;20212;-77
2022/01/14 04:21:55;;;;;;;72.65;29.50;;;4.60;69.40;;;-142.21;100.00;112049.66;4986125;28;20285;-78
2022/01/14 04:24:22;;;;;;;54.58;27.92;;;4.60;69.20;;;-142.21;100.00;112049.66;4964652;28;20196;-78
2022/01/14 04:26:50;;;;;;;55.65;27.08;;;4.60;69.00;;;-142.21;100.00;112049.66;4982931;28;20200;-78
2022/01/14 04:29:18;;;;;;;61.72;30.17;;;4.70;68.90;;;-142.21;100.00;112049.66;4974610;28;20212;-77
2022/01/14 04:31:45;;;;;;;36.33;25.45;;;4.90;69.10;;;-142.21;100.00;112049.66;4974478;28;20233;-79
2022/01/14 04:34:15;;;;;;;59.60;27.83;;;4.80;68.70;;;-142.21;100.00;112049.66;4975155;28;20271;-78
2022/01/14 04:36:43;;;;;;;66.95;28.20;;;4.70;69.00;;;-142.21;100.00;112049.66;4993502;28;20219;-78
2022/01/14 04:39:12;;;;;;;69.28;29.75;;;4.80;68.80;;;-142.21;100.00;112049.66;4993942;28;20672;-78
2022/01/14 04:41:40;;;;;;;75.55;29.75;;;4.70;68.60;;;-142.21;100.00;112049.66;4993849;28;20262;-78
2022/01/14 04:44:08;;;;;;;45.10;25.70;;;4.70;68.80;;;-142.21;100.00;112049.66;4993428;28;20327;-78
2022/01/14 04:47:01;;;;;;;39.05;25.52;;;4.70;68.60;;;-142.21;100.00;112049.66;4993796;28;20219;-78
2022/01/14 04:49:29;;;;;;;65.55;26.70;;;4.60;67.90;;;-142.21;100.00;112049.66;4994394;28;20212;-76
2022/01/14 04:51:56;;;;;;;63.72;27.90;;;4.50;68.40;;;-142.21;100.00;112049.66;4984715;28;20210;-78
2022/01/14 04:54:24;;;;;;;50.60;25.60;;;4.40;68.30;;;-142.21;100.00;112049.66;4980513;28;20315;-77
2022/01/14 04:56:52;;;;;;;64.82;24.88;;;4.30;68.10;;;-142.21;100.00;112049.66;4993554;28;20310;-78
2022/01/14 04:59:23;;;;;;;48.25;26.30;;;4.30;68.20;;;-142.21;100.00;112049.66;4993282;28;20211;-78
2022/01/14 05:01:52;;;;;;;93.10;31.40;;;4.30;69.20;;;-142.21;100.00;112049.66;4973109;28;20232;-78
2022/01/14 05:04:22;;;;;;;62.08;27.13;;;4.30;70.20;;;-142.21;100.00;112049.66;4981036;28;20287;-78
2022/01/14 05:06:56;;;;;;;68.13;31.73;;;4.30;70.50;;;-142.21;100.00;112049.66;4993715;28;20231;-78
2022/01/14 05:09:30;;;;;;;73.30;29.10;;;4.30;70.20;;;-142.21;100.00;112049.66;4992732;28;20227;-79
2022/01/14 05:12:05;;;;;;;60.83;27.38;;;4.40;70.30;;;-142.21;100.00;112049.66;4980150;28;20196;-78
2022/01/14 05:14:32;;;;;;;54.40;27.90;;;4.40;70.20;;;-142.21;100.00;112049.66;4973413;28;20215;-78
2022/01/14 05:17:01;;;;;;;62.00;27.45;;;4.30;71.00;;;-142.21;100.00;112049.66;4974203;28;20300;-78
2022/01/14 05:19:29;;;;;;;54.10;27.92;;;4.20;71.20;;;-142.21;100.00;112049.66;4977200;28;20763;-78
2022/01/14 05:21:56;;;;;;;48.78;25.77;;;4.10;70.30;;;-142.21;100.00;112049.66;4992488;28;20192;-78
2022/01/14 05:24:24;;;;;;;76.95;35.13;;;4.10;70.40;;;-142.21;100.00;112049.66;4992862;28;20623;-78
2022/01/14 05:26:51;;;;;;;73.80;31.85;;;4.10;69.40;;;-142.21;100.00;112049.66;4992391;28;20211;-78
2022/01/14 05:29:19;;;;;;;65.28;28.58;;;4.00;71.30;;;-142.21;100.00;112049.66;4992981;28;20212;-78
2022/01/14 05:31:50;;;;;;;58.58;29.83;;;4.00;72.20;;;-142.21;100.00;112049.66;4993149;28;20208;-79
2022/01/14 05:34:19;;;;;;;100.88;32.88;;;4.00;72.50;;;-142.21;100.00;112049.66;4993541;28;20220;-79
2022/01/14 05:36:46;;;;;;;75.10;31.98;;;4.00;73.40;;;-142.21;100.00;112049.66;4992425;28;20243;-78
2022/01/14 05:39:14;;;;;;;45.97;28.98;;;4.10;74.10;;;-142.21;100.00;112049.66;4992651;28;20208;-78
2022/01/14 05:41:41;;;;;;;78.63;32.60;;;4.10;73.20;;;-142.21;100.00;112049.66;4975449;28;20204;-78
2022/01/14 05:44:08;;;;;;;113.35;34.63;;;4.10;73.40;;;-142.21;100.00;112049.66;4992894;28;20250;-78
2022/01/14 05:46:35;;;;;;;120.32;39.15;;;4.10;74.00;;;-142.21;100.00;112049.66;4992553;28;20239;-78
2022/01/14 05:49:03;;;;;;;118.53;34.33;;;4.00;73.80;;;-142.21;100.00;112049.66;4992853;28;20235;-77
2022/01/14 05:51:31;;;;;;;104.80;33.70;;;4.00;74.60;;;-142.21;100.00;112049.66;4992796;28;20290;-77
2022/01/14 05:53:59;;;;;;;58.45;30.25;;;3.90;74.80;;;-142.21;100.00;112049.66;4988218;28;20311;-78
2022/01/14 05:56:26;;;;;;;66.07;31.92;;;4.00;74.80;;;-142.21;100.00;112049.66;4980126;28;20232;-78
2022/01/14 05:58:53;;;;;;;72.00;33.53;;;4.00;74.30;;;-142.21;100.00;112049.66;4992461;28;20223;-78
2022/01/14 06:01:21;;;;;;;69.05;35.10;;;4.00;74.50;;;-142.21;100.00;112049.66;4992991;28;20291;-78
2022/01/14 06:03:48;;;;;;;69.78;33.67;;;4.00;74.00;;;-142.21;100.00;112049.66;4992387;28;20218;-76
2022/01/14 06:06:16;;;;;;;53.75;31.48;;;3.90;75.50;;;-142.21;100.00;112049.66;4993097;28;20294;-79
2022/01/14 06:08:48;;;;;;;49.42;29.98;;;3.90;75.20;;;-142.21;100.00;112049.66;4992639;28;20301;-79
2022/01/14 06:11:15;;;;;;;78.05;34.00;;;3.90;75.40;;;-142.21;100.00;112049.66;4993096;28;20556;-80
2022/01/14 06:13:43;;;;;;;69.32;33.05;;;3.90;74.90;;;-142.21;100.00;112049.66;4992910;28;20202;-75
2022/01/14 06:16:10;;;;;;;59.72;32.05;;;3.80;75.80;;;-142.21;100.00;112049.66;4992944;28;20267;-78
2022/01/14 06:18:38;;;;;;;56.20;30.42;;;3.80;75.10;;;-142.21;100.00;112049.66;4995154;28;20295;-77
2022/01/14 06:21:05;;;;;;;56.85;32.88;;;3.90;75.00;;;-142.21;100.00;112049.66;5015122;28;20220;-76
2022/01/14 06:23:34;;;;;;;63.35;31.05;;;4.00;75.20;;;-142.21;100.00;112049.66;5013015;28;20180;-76
2022/01/14 06:26:04;;;;;;;55.58;31.08;;;4.00;75.20;;;-142.21;100.00;112049.66;4994349;28;20242;-78
2022/01/14 06:28:31;;;;;;;138.80;43.38;;;4.00;75.40;;;-142.21;100.00;112049.66;4992663;28;20238;-77
2022/01/14 06:30:58;;;;;;;72.00;34.63;;;4.10;75.00;;;-142.21;100.00;112049.66;4992776;28;20208;-77
2022/01/14 06:33:25;;;;;;;60.75;34.25;;;4.10;75.00;;;-142.21;100.00;112049.66;4992982;28;20275;-78
2022/01/14 06:35:53;;;;;;;56.28;31.25;;;4.20;74.60;;;-142.21;100.00;112049.66;4996513;28;20331;-79
2022/01/14 06:38:21;;;;;;;92.07;38.40;;;4.30;74.40;;;-142.21;100.00;112049.66;4995361;28;20295;-79
2022/01/14 06:40:49;;;;;;;55.17;32.20;;;4.30;74.50;;;-142.21;100.00;112049.66;4996460;28;20556;-78
2022/01/14 06:43:18;;;;;;;67.13;32.83;;;4.30;74.70;;;-142.21;100.00;112049.66;4989258;28;20240;-78
2022/01/14 06:45:46;;;;;;;83.50;34.50;;;4.40;74.80;;;-142.21;100.00;112049.66;4990133;28;20254;-78
2022/01/14 06:48:13;;;;;;;49.50;29.48;;;4.40;74.30;;;-142.21;100.00;112049.66;4996018;28;20234;-80
2022/01/14 06:50:40;;;;;;;83.78;38.55;;;4.40;74.20;;;-142.21;100.00;112049.66;4995338;28;20203;-80
2022/01/14 06:53:08;;;;;;;55.83;31.75;;;4.50;74.10;;;-142.21;100.00;112049.66;4986426;28;20248;-77
2022/01/14 06:55:35;;;;;;;60.95;31.27;;;4.50;73.70;;;-142.21;100.00;112049.66;4975933;28;20287;-76
2022/01/14 06:58:02;;;;;;;54.67;31.23;;;4.50;73.70;;;-142.21;100.00;112049.66;4977245;28;20212;-77
2022/01/14 07:00:33;;;;;;;71.38;31.70;;;4.60;73.00;;;-142.21;100.00;112049.66;4993346;28;20287;-77
2022/01/14 07:03:01;;;;;;;56.58;34.20;;;4.50;72.90;;;-142.21;100.00;112049.66;4991239;28;20192;-78
2022/01/14 07:05:28;;;;;;;60.30;31.95;;;4.50;73.00;;;-142.21;100.00;112049.66;4995614;28;20266;-75
2022/01/14 07:07:55;;;;;;;61.60;32.30;;;4.50;73.30;;;-142.21;100.00;112049.66;4976339;28;20617;-76
2022/01/14 07:10:23;;;;;;;56.85;32.13;;;4.50;73.60;;;-142.21;100.00;112049.66;4976502;28;20737;-76
2022/01/14 07:12:50;;;;;;;78.45;34.95;;;4.50;74.00;;;-142.21;100.00;112049.66;4948579;28;20206;-77
2022/01/14 07:15:20;;;;;;;74.07;36.60;;;4.50;73.60;;;-142.21;100.00;112049.66;4995643;28;20688;-76
2022/01/14 07:17:49;;;;;;;54.20;30.70;;;4.50;73.70;;;-142.21;100.00;112049.66;4994979;28;20331;-78
2022/01/14 07:20:18;;;;;;;53.88;30.58;;;4.60;73.70;;;-142.21;100.00;112049.66;4993305;28;20248;-76
2022/01/14 07:22:47;;;;;;;94.97;41.38;;;4.60;73.60;;;-142.21;100.00;112049.66;4975457;28;20208;-78
2022/01/14 07:25:15;;;;;;;86.93;37.25;;;4.70;73.60;;;-142.21;100.00;112049.66;4975982;28;20209;-77
2022/01/14 07:27:42;;;;;;;66.93;35.30;;;4.70;73.30;;;-142.21;100.00;112049.66;4986722;28;20291;-75
2022/01/14 07:30:11;;;;;;;67.55;34.08;;;4.70;73.90;;;-142.21;100.00;112049.66;4995470;28;20208;-77
2022/01/14 07:32:38;;;;;;;70.25;34.90;;;4.60;74.40;;;-142.21;100.00;112049.66;4984546;28;20204;-79
2022/01/14 07:35:08;;;;;;;62.60;34.55;;;4.40;74.80;;;-142.21;100.00;112049.66;4994237;28;20318;-77
2022/01/14 07:37:35;;;;;;;76.43;35.40;;;4.50;74.80;;;-142.21;100.00;112049.66;4995452;28;20250;-78
2022/01/14 07:40:05;;;;;;;54.67;30.80;;;4.50;75.00;;;-142.21;100.00;112049.66;4977262;28;20295;-78
2022/01/14 07:42:32;;;;;;;68.00;34.03;;;4.60;74.80;;;-142.21;100.00;112049.66;4986143;28;20235;-77
2022/01/14 07:45:00;;;;;;;72.15;37.40;;;4.60;74.70;;;-142.21;100.00;112049.66;4993864;28;20267;-78
2022/01/14 07:47:36;;;;;;;94.90;40.85;;;4.60;75.00;;;-142.21;100.00;112049.66;4992994;28;20205;-77
2022/01/14 07:50:06;;;;;;;77.25;36.03;;;4.70;74.50;;;-142.21;100.00;112049.66;4986509;28;20235;-78
2022/01/14 07:52:33;;;;;;;114.07;44.72;;;4.60;75.20;;;-142.21;100.00;112049.66;4977441;28;20239;-76
2022/01/14 07:55:01;;;;;;;92.95;41.33;;;4.60;74.80;;;-142.21;100.00;112049.66;4995071;28;20232;-76
2022/01/14 07:57:28;;;;;;;93.68;39.25;;;4.50;75.30;;;-142.21;100.00;112049.66;4994972;28;20303;-77
2022/01/14 07:59:55;;;;;;;94.22;40.33;;;4.50;76.00;;;-142.21;100.00;112049.66;4994757;28;20328;-78
2022/01/14 08:02:22;;;;;;;103.10;43.53;;;4.40;76.00;;;-142.21;100.00;112049.66;4994097;28;20224;-78
2022/01/14 08:04:50;;;;;;;98.13;39.03;;;4.50;75.90;;;-142.21;100.00;112049.66;4994978;28;20208;-77
2022/01/14 08:07:22;;;;;;;125.90;44.28;;;4.40;76.00;;;-142.21;100.00;112049.66;4994173;28;20200;-75
2022/01/14 08:09:50;;;;;;;100.60;40.80;;;4.20;76.70;;;-142.21;100.00;112049.66;4994772;28;20204;-75
2022/01/14 08:12:17;;;;;;;92.60;39.08;;;4.30;76.60;;;-142.21;100.00;112049.66;4993991;28;20243;-78
2022/01/14 08:14:44;;;;;;;71.22;36.08;;;4.30;76.90;;;-142.21;100.00;112049.66;4994925;28;20227;-77
2022/01/14 08:17:15;;;;;;;76.40;38.10;;;4.30;76.60;;;-142.21;100.00;112049.66;4975149;28;20364;-78
2022/01/14 08:19:42;;;;;;;83.88;39.17;;;4.30;76.70;;;-142.21;100.00;112049.66;4976061;28;20212;-77
2022/01/14 08:22:10;;;;;;;77.97;36.53;;;4.20;77.60;;;-142.21;100.00;112049.66;4994614;28;20272;-77
2022/01/14 08:24:39;;;;;;;70.43;36.30;;;4.20;77.50;;;-142.21;100.00;112049.66;4993279;28;20660;-78
2022/01/14 08:27:07;;;;;;;83.70;38.00;;;4.10;77.40;;;-142.21;100.00;112049.66;4994433;28;20212;-80
2022/01/14 08:29:36;;;;;;;82.47;35.80;;;4.20;77.90;;;-142.21;100.00;112049.66;4993372;28;20730;-78
2022/01/14 08:32:05;;;;;;;57.42;32.25;;;4.20;77.50;;;-142.21;100.00;112049.66;4993959;28;20715;-80
2022/01/14 08:34:32;;;;;;;74.60;36.45;;;4.20;77.00;;;-142.21;100.00;112049.66;4993177;28;20291;-80
2022/01/14 08:37:00;;;;;;;61.15;33.80;;;4.30;76.30;;;-142.21;100.00;112049.66;4994053;28;20250;-80
2022/01/14 08:39:27;;;;;;;64.40;34.22;;;4.10;77.10;;;-142.21;100.00;112049.66;4978357;28;20657;-80
2022/01/14 08:41:56;;;;;;;52.60;30.88;;;4.20;76.60;;;-142.21;100.00;112049.66;4973939;28;20216;-80
2022/01/14 08:44:23;;;;;;;56.53;30.88;;;4.20;76.80;;;-142.21;100.00;112049.66;4992120;28;20204;-76
2022/01/14 08:46:50;;;;;;;51.88;30.75;;;4.10;76.90;;;-142.21;100.00;112049.66;4993405;28;20199;-81
2022/01/14 08:49:18;;;;;;;48.50;30.10;;;4.10;76.90;;;-142.21;100.00;112049.66;4974180;28;20538;-80
2022/01/14 08:51:47;;;;;;;54.00;30.98;;;4.10;76.90;;;-142.21;100.00;112049.66;4973922;28;20633;-80
2022/01/14 08:54:14;;;;;;;50.75;30.83;;;4.30;76.30;;;-142.21;100.00;112049.66;4990204;28;20207;-79
2022/01/14 08:56:41;;;;;;;43.42;27.42;;;4.30;76.30;;;-142.21;100.00;112049.66;4994154;28;20617;-77
2022/01/14 08:59:10;;;;;;;44.72;27.52;;;4.30;76.40;;;-142.21;100.00;112049.66;4993677;28;20416;-76
2022/01/14 09:01:40;;;;;;;51.30;30.35;;;4.50;75.70;;;-142.21;100.00;112049.66;4994465;28;20295;-77
2022/01/14 09:04:09;;;;;;;47.17;30.30;;;4.60;75.00;;;-142.21;100.00;112049.66;4992829;28;22259;-76
2022/01/14 09:06:36;;;;;;;48.53;30.00;;;4.60;74.90;;;-142.21;100.00;112049.66;4982261;28;20279;-77
2022/01/14 09:09:06;;;;;;;50.50;30.88;;;4.70;75.10;;;-142.21;100.00;112049.66;4973885;28;20208;-77
2022/01/14 09:11:33;;;;;;;55.92;31.50;;;4.80;74.90;;;-142.21;100.00;112049.66;4974035;28;20554;-76
2022/01/14 09:14:01;;;;;;;51.17;32.28;;;4.90;75.60;;;-142.21;100.00;112049.66;4992103;28;20246;-77
2022/01/14 09:16:29;;;;;;;47.33;30.05;;;4.90;74.40;;;-142.21;100.00;112049.66;4993739;28;20259;-76
2022/01/14 09:18:57;;;;;;;52.13;31.30;;;4.90;74.40;;;-142.21;100.00;112049.66;4976057;28;20208;-77
2022/01/14 09:21:25;;;;;;;61.55;31.80;;;4.80;74.30;;;-142.21;100.00;112049.66;4992613;28;20331;-76
2022/01/14 09:24:02;;;;;;;50.13;31.42;;;4.80;74.20;;;-142.21;100.00;112049.66;4993312;28;20211;-77
2022/01/14 09:26:30;;;;;;;50.78;32.72;;;4.80;74.50;;;-142.21;100.00;112049.66;4993558;28;20202;-76
2022/01/14 09:28:58;;;;;;;55.40;33.03;;;4.80;74.20;;;-142.21;100.00;112049.66;4993682;28;20212;-77
2022/01/14 09:31:25;;;;;;;50.08;31.17;;;4.90;74.10;;;-142.21;100.00;112049.66;4992154;28;20279;-77
2022/01/14 09:33:54;;;;;;;54.40;33.15;;;4.90;73.80;;;-142.21;100.00;112049.66;4995231;28;20227;-76
2022/01/14 09:36:21;;;;;;;56.33;31.60;;;4.90;74.10;;;-142.21;100.00;112049.66;4992325;28;20310;-77
2022/01/14 09:38:49;;;;;;;54.08;31.88;;;5.00;73.50;;;-142.21;100.00;112049.66;4993341;28;20239;-77
2022/01/14 09:41:19;;;;;;;54.40;31.17;;;4.90;73.70;;;-142.21;100.00;112049.66;4992468;28;20255;-75
2022/01/14 09:43:46;;;;;;;63.35;32.92;;;5.00;73.80;;;-142.21;100.00;112049.66;4992920;28;20215;-76
2022/01/14 09:46:14;;;;;;;52.88;31.40;;;5.00;73.50;;;-142.21;100.00;112049.66;4978973;28;20197;-76
2022/01/14 09:48:42;;;;;;;45.83;29.02;;;5.00;74.00;;;-142.21;100.00;112049.66;4983895;28;20250;-77
2022/01/14 09:51:10;;;;;;;44.50;29.08;;;5.10;73.70;;;-142.21;100.00;112049.66;4992855;28;20657;-77
2022/01/14 09:53:37;;;;;;;46.65;29.33;;;5.20;73.10;;;-142.21;100.00;112049.66;4980406;28;20291;-74
2022/01/14 09:56:06;;;;;;;52.53;33.40;;;5.30;72.70;;;-142.21;100.00;112049.66;4980835;28;20310;-78
2022/01/14 09:58:37;;;;;;;47.47;30.33;;;5.40;73.00;;;-142.21;100.00;112049.66;4988737;28;20266;-76
2022/01/14 10:01:10;;;;;;;49.95;30.67;;;5.40;72.00;;;-142.21;100.00;112049.66;4992677;28;20641;-78
2022/01/14 10:03:54;;;;;;;74.28;38.38;;;5.50;72.20;;;-142.21;100.00;112049.66;4983132;28;20196;-77
2022/01/14 10:06:44;;;;;;;48.33;30.65;;;5.60;72.30;;;-142.21;100.00;112049.66;4982704;28;20224;-79
2022/01/14 10:09:17;;;;;;;52.30;32.03;;;5.60;72.30;;;-142.21;100.00;112049.66;4959628;28;20197;-79
2022/01/14 10:12:00;;;;;;;74.43;38.00;;;5.70;72.30;;;-142.21;100.00;112049.66;4978771;28;20634;-78
2022/01/14 10:14:28;;;;;;;52.85;33.25;;;5.60;72.20;;;-142.21;100.00;112049.66;4996664;28;20229;-78